createdAt,value
2023-03-17T00:00:23.733Z,5.99
2023-03-17T00:02:59.621Z,5.95
2023-03-17T00:05:33.360Z,5.89
2023-03-17T00:08:12.507Z,5.93
2023-03-17T00:10:39.159Z,5.88
2023-03-17T00:13:06.363Z,5.85
2023-03-17T00:15:33.138Z,5.86
2023-03-17T00:17:59.698Z,5.90
2023-03-17T00:20:29.535Z,5.89
2023-03-17T00:22:59.234Z,5.92
2023-03-17T00:25:28.982Z,5.97
2023-03-17T00:27:58.204Z,6.05
2023-03-17T00:30:27.951Z,6.08
2023-03-17T00:32:57.701Z,6.10
2023-03-17T00:35:28.986Z,6.12
2023-03-17T00:37:57.694Z,6.10
2023-03-17T00:40:31.390Z,6.07
2023-03-17T00:43:00.149Z,6.09
2023-03-17T00:45:27.206Z,6.01
2023-03-17T00:47:56.061Z,5.99
2023-03-17T00:50:25.478Z,5.93
2023-03-17T00:52:55.229Z,5.84
2023-03-17T00:55:23.444Z,5.83
2023-03-17T00:57:50.752Z,5.80
2023-03-17T01:00:24.639Z,5.78
2023-03-17T01:02:57.354Z,5.82
2023-03-17T01:05:26.117Z,5.74
2023-03-17T01:07:55.154Z,5.67
2023-03-17T01:10:28.374Z,5.61
2023-03-17T01:13:00.536Z,5.60
2023-03-17T01:15:31.593Z,5.58
2023-03-17T01:17:59.544Z,5.59
2023-03-17T01:20:29.396Z,5.57
2023-03-17T01:22:56.199Z,5.60
2023-03-17T01:25:23.726Z,5.68
2023-03-17T01:27:50.965Z,5.73
2023-03-17T01:30:20.680Z,5.78
2023-03-17T01:32:47.460Z,5.76
2023-03-17T01:35:14.610Z,5.78
2023-03-17T01:37:41.411Z,5.80
2023-03-17T01:40:12.848Z,5.82
2023-03-17T01:42:40.037Z,5.84
2023-03-17T01:45:28.525Z,5.89
2023-03-17T01:47:55.125Z,6.02
2023-03-17T01:50:21.876Z,6.10
2023-03-17T01:52:48.664Z,6.21
2023-03-17T01:55:17.954Z,6.30
2023-03-17T01:57:56.409Z,6.37
2023-03-17T02:00:24.914Z,6.38
2023-03-17T02:02:57.108Z,6.37
2023-03-17T02:05:29.902Z,6.40
2023-03-17T02:07:56.777Z,6.34
2023-03-17T02:10:29.828Z,6.26
2023-03-17T02:13:00.314Z,6.12
2023-03-17T02:15:37.832Z,6.07
2023-03-17T02:18:04.688Z,5.98
2023-03-17T02:20:31.579Z,5.87
2023-03-17T02:22:59.551Z,5.78
2023-03-17T02:25:29.199Z,5.67
2023-03-17T02:28:01.841Z,5.63
2023-03-17T02:30:29.066Z,5.51
2023-03-17T02:32:55.886Z,5.51
2023-03-17T02:35:23.438Z,5.52
2023-03-17T02:37:50.132Z,5.56
2023-03-17T02:40:17.491Z,5.50
2023-03-17T02:42:44.815Z,5.46
2023-03-17T02:45:12.716Z,5.44
2023-03-17T02:47:40.038Z,5.52
2023-03-17T02:50:07.771Z,5.52
2023-03-17T02:52:34.375Z,5.52
2023-03-17T02:55:01.115Z,5.51
2023-03-17T02:57:27.681Z,5.50
2023-03-17T02:59:54.275Z,5.51
2023-03-17T03:02:20.902Z,5.47
2023-03-17T03:04:47.790Z,5.43
2023-03-17T03:07:14.462Z,5.36
2023-03-17T03:09:42.165Z,5.37
2023-03-17T03:12:10.102Z,5.35
2023-03-17T03:14:36.774Z,5.39
2023-03-17T03:17:04.510Z,5.32
2023-03-17T03:19:31.232Z,5.30
2023-03-17T03:21:57.893Z,5.34
2023-03-17T03:24:24.471Z,5.35
2023-03-17T03:26:51.799Z,5.34
2023-03-17T03:29:18.446Z,5.32
2023-03-17T03:31:45.126Z,5.33
2023-03-17T03:34:12.017Z,5.27
2023-03-17T03:36:38.626Z,5.23
2023-03-17T03:39:05.254Z,5.20
2023-03-17T03:41:31.880Z,5.23
2023-03-17T03:43:58.510Z,5.22
2023-03-17T03:46:26.722Z,5.31
2023-03-17T03:48:54.737Z,5.26
2023-03-17T03:51:21.356Z,5.18
2023-03-17T03:53:50.736Z,5.24
2023-03-17T03:56:17.438Z,5.20
2023-03-17T03:58:44.047Z,5.26
2023-03-17T04:01:10.648Z,5.43
2023-03-17T04:03:38.528Z,5.50
2023-03-17T04:06:05.867Z,5.68
2023-03-17T04:08:32.530Z,5.75
2023-03-17T04:10:59.183Z,5.76
2023-03-17T04:13:25.777Z,5.91
2023-03-17T04:15:52.764Z,5.96
2023-03-17T04:18:19.546Z,5.99
2023-03-17T04:20:46.104Z,6.02
2023-03-17T04:23:12.884Z,6.06
2023-03-17T04:25:39.473Z,6.03
2023-03-17T04:28:06.464Z,6.06
2023-03-17T04:30:33.298Z,6.03
2023-03-17T04:32:59.953Z,6.01
2023-03-17T04:35:27.142Z,6.03
2023-03-17T04:37:53.794Z,6.09
2023-03-17T04:40:20.745Z,6.15
2023-03-17T04:42:47.413Z,6.25
2023-03-17T04:45:15.557Z,6.20
2023-03-17T04:47:42.625Z,6.21
2023-03-17T04:50:10.352Z,6.24
2023-03-17T04:52:37.689Z,6.25
2023-03-17T04:55:08.316Z,6.27
2023-03-17T04:57:36.136Z,6.28
2023-03-17T05:00:05.060Z,6.21
2023-03-17T05:02:43.797Z,6.23
2023-03-17T05:05:10.385Z,6.26
2023-03-17T05:07:36.971Z,6.18
2023-03-17T05:10:04.286Z,6.09
2023-03-17T05:12:31.118Z,6.01
2023-03-17T05:14:57.732Z,5.99
2023-03-17T05:17:24.377Z,5.94
2023-03-17T05:19:51.010Z,5.90
2023-03-17T05:22:17.600Z,5.84
2023-03-17T05:24:44.303Z,5.77
2023-03-17T05:27:11.051Z,5.74
2023-03-17T05:29:38.107Z,5.76
2023-03-17T05:32:05.043Z,5.65
2023-03-17T05:34:32.119Z,5.62
2023-03-17T05:36:58.707Z,5.67
2023-03-17T05:39:25.338Z,5.73
2023-03-17T05:41:52.296Z,5.75
2023-03-17T05:44:20.361Z,5.73
2023-03-17T05:46:46.953Z,5.54
2023-03-17T05:49:13.619Z,5.39
2023-03-17T05:51:41.975Z,5.24
2023-03-17T05:54:09.429Z,5.17
2023-03-17T05:56:36.533Z,5.11
2023-03-17T05:59:04.585Z,5.19
2023-03-17T06:01:31.442Z,5.35
2023-03-17T06:03:58.135Z,5.43
2023-03-17T06:06:25.827Z,5.53
2023-03-17T06:08:52.462Z,5.71
2023-03-17T06:11:21.469Z,5.91
2023-03-17T06:13:48.513Z,6.10
2023-03-17T06:16:15.292Z,6.23
2023-03-17T06:18:42.044Z,6.42
2023-03-17T06:21:08.644Z,6.63
2023-03-17T06:23:36.591Z,6.78
2023-03-17T06:26:03.390Z,6.86
2023-03-17T06:28:30.685Z,6.96
2023-03-17T06:30:57.386Z,7.06
2023-03-17T06:33:24.980Z,7.26
2023-03-17T06:35:51.716Z,7.40
2023-03-17T06:38:18.384Z,7.65
2023-03-17T06:40:44.962Z,7.96
2023-03-17T06:43:11.547Z,8.43
2023-03-17T06:45:38.194Z,8.57
2023-03-17T06:48:04.964Z,8.52
2023-03-17T06:50:31.905Z,8.52
2023-03-17T06:52:58.605Z,8.54
2023-03-17T06:55:25.231Z,8.59
2023-03-17T06:57:52.455Z,8.64
2023-03-17T07:00:20.981Z,8.72
2023-03-17T07:02:55.507Z,8.85
2023-03-17T07:05:22.811Z,8.80
2023-03-17T07:07:49.786Z,8.84
2023-03-17T07:10:17.296Z,8.90
2023-03-17T07:12:44.961Z,8.97
2023-03-17T07:15:12.548Z,9.07
2023-03-17T07:17:39.270Z,9.12
2023-03-17T07:20:06.857Z,9.15
2023-03-17T07:22:33.645Z,9.19
2023-03-17T07:25:00.352Z,9.28
2023-03-17T07:27:27.046Z,9.49
2023-03-17T07:29:53.758Z,9.73
2023-03-17T07:32:20.358Z,9.85
2023-03-17T07:34:47.085Z,10.12
2023-03-17T07:37:13.699Z,10.06
2023-03-17T07:39:40.301Z,10.25
2023-03-17T07:42:06.939Z,10.42
2023-03-17T07:44:33.780Z,10.34
2023-03-17T07:47:00.404Z,10.31
2023-03-17T07:49:40.472Z,10.46
2023-03-17T07:52:09.228Z,10.37
2023-03-17T07:54:37.032Z,10.38
2023-03-17T07:57:04.590Z,10.49
2023-03-17T07:59:31.738Z,10.60
2023-03-17T08:02:05.840Z,10.62
2023-03-17T08:04:32.480Z,10.78
2023-03-17T08:06:59.058Z,10.88
2023-03-17T08:09:25.800Z,11.13
2023-03-17T08:11:52.603Z,11.26
2023-03-17T08:14:19.689Z,11.39
2023-03-17T08:16:46.417Z,11.42
2023-03-17T08:19:13.156Z,11.57
2023-03-17T08:21:39.951Z,11.48
2023-03-17T08:24:06.997Z,11.49
2023-03-17T08:26:33.886Z,11.68
2023-03-17T08:29:01.353Z,11.65
2023-03-17T08:31:28.623Z,11.76
2023-03-17T08:33:57.262Z,11.53
2023-03-17T08:36:24.382Z,11.53
2023-03-17T08:38:51.285Z,11.33
2023-03-17T08:41:21.264Z,11.34
2023-03-17T08:43:48.416Z,11.24
2023-03-17T08:46:24.096Z,11.23
2023-03-17T08:48:54.078Z,11.17
2023-03-17T08:51:24.254Z,11.13
2023-03-17T08:53:52.224Z,10.87
2023-03-17T08:56:19.414Z,10.86
2023-03-17T08:58:47.025Z,10.76
2023-03-17T09:01:15.314Z,11.00
2023-03-17T09:03:42.696Z,11.17
2023-03-17T09:06:12.385Z,11.21
2023-03-17T09:08:44.677Z,11.21
2023-03-17T09:11:14.779Z,11.00
2023-03-17T09:13:41.612Z,11.24
2023-03-17T09:16:08.933Z,11.28
2023-03-17T09:18:36.237Z,11.33
2023-03-17T09:21:04.097Z,11.50
2023-03-17T09:23:31.104Z,11.34
2023-03-17T09:25:58.082Z,11.28
2023-03-17T09:28:24.985Z,11.44
2023-03-17T09:30:52.831Z,11.50
2023-03-17T09:33:19.509Z,11.55
2023-03-17T09:35:46.091Z,11.67
2023-03-17T09:38:12.841Z,11.86
2023-03-17T09:40:48.737Z,11.85
2023-03-17T09:43:37.200Z,11.91
2023-03-17T09:46:36.024Z,12.19
2023-03-17T09:49:28.480Z,12.07
2023-03-17T09:51:55.665Z,12.23
2023-03-17T09:54:25.158Z,12.44
2023-03-17T09:57:01.721Z,12.51
2023-03-17T09:59:40.478Z,12.47
2023-03-17T10:02:19.894Z,12.30
2023-03-17T10:04:48.849Z,12.63
2023-03-17T10:07:22.628Z,12.99
2023-03-17T10:10:03.151Z,13.25
2023-03-17T10:12:47.203Z,13.34
2023-03-17T10:15:20.033Z,13.25
2023-03-17T10:17:47.698Z,13.39
2023-03-17T10:20:26.031Z,13.51
2023-03-17T10:22:58.672Z,13.49
2023-03-17T10:25:32.747Z,13.59
2023-03-17T10:28:09.134Z,13.77
2023-03-17T10:30:36.369Z,13.84
2023-03-17T10:33:07.243Z,13.92
2023-03-17T10:35:36.463Z,13.72
2023-03-17T10:38:19.396Z,13.66
2023-03-17T10:40:54.874Z,13.65
2023-03-17T10:43:22.632Z,13.79
2023-03-17T10:46:18.303Z,13.56
2023-03-17T10:48:52.396Z,13.54
2023-03-17T10:51:36.985Z,13.39
2023-03-17T10:54:26.636Z,13.62
2023-03-17T10:57:02.887Z,13.79
2023-03-17T10:59:33.285Z,14.02
2023-03-17T11:02:07.847Z,14.05
2023-03-17T11:04:42.875Z,14.07
2023-03-17T11:07:18.673Z,13.94
2023-03-17T11:09:57.576Z,13.86
2023-03-17T11:12:26.671Z,13.90
2023-03-17T11:15:05.339Z,13.84
2023-03-17T11:17:52.395Z,13.92
2023-03-17T11:20:40.952Z,13.76
2023-03-17T11:23:46.788Z,13.69
2023-03-17T11:26:35.633Z,13.89
2023-03-17T11:29:17.580Z,13.76
2023-03-17T11:32:11.815Z,13.86
2023-03-17T11:35:02.320Z,14.11
2023-03-17T11:37:38.790Z,14.41
2023-03-17T11:40:12.078Z,14.22
2023-03-17T11:42:59.352Z,14.08
2023-03-17T11:45:47.416Z,14.32
2023-03-17T11:48:37.513Z,14.39
2023-03-17T11:51:34.629Z,14.38
2023-03-17T11:54:10.991Z,14.38
2023-03-17T11:57:03.609Z,14.42
2023-03-17T11:59:48.342Z,14.76
2023-03-17T12:02:27.800Z,14.75
2023-03-17T12:05:01.534Z,14.87
2023-03-17T12:07:39.876Z,14.82
2023-03-17T12:10:16.166Z,14.72
2023-03-17T12:13:01.412Z,14.98
2023-03-17T12:15:36.307Z,14.75
2023-03-17T12:18:13.330Z,14.74
2023-03-17T12:21:05.517Z,14.72
2023-03-17T12:23:45.316Z,15.08
2023-03-17T12:26:16.740Z,15.48
2023-03-17T12:28:59.257Z,15.65
2023-03-17T12:31:43.249Z,15.80
2023-03-17T12:34:20.935Z,15.79
2023-03-17T12:36:49.701Z,15.63
2023-03-17T12:39:22.566Z,15.27
2023-03-17T12:42:13.653Z,15.05
2023-03-17T12:44:59.108Z,15.03
2023-03-17T12:47:48.447Z,15.02
2023-03-17T12:51:07.436Z,14.93
2023-03-17T12:53:39.265Z,14.65
2023-03-17T12:56:20.091Z,14.39
2023-03-17T12:58:54.004Z,14.36
2023-03-17T13:01:34.882Z,14.06
2023-03-17T13:04:18.377Z,14.26
2023-03-17T13:07:08.038Z,14.14
2023-03-17T13:09:44.611Z,14.10
2023-03-17T13:12:40.614Z,14.19
2023-03-17T13:15:29.080Z,14.40
2023-03-17T13:18:19.121Z,14.19
2023-03-17T13:20:59.784Z,14.18
2023-03-17T13:23:48.002Z,13.90
2023-03-17T13:26:21.448Z,14.00
2023-03-17T13:28:51.400Z,13.96
2023-03-17T13:31:27.879Z,13.76
2023-03-17T13:34:14.028Z,13.66
2023-03-17T13:37:23.638Z,13.73
2023-03-17T13:40:26.624Z,13.85
2023-03-17T13:43:32.077Z,13.80
2023-03-17T13:46:22.808Z,13.75
2023-03-17T13:48:51.127Z,13.66
2023-03-17T13:51:25.485Z,13.60
2023-03-17T13:53:59.521Z,13.49
2023-03-17T13:56:47.062Z,13.47
2023-03-17T13:59:36.885Z,13.53
2023-03-17T14:02:17.210Z,13.65
2023-03-17T14:04:56.421Z,13.76
2023-03-17T14:07:29.315Z,13.95
2023-03-17T14:10:00.617Z,14.11
2023-03-17T14:12:43.101Z,14.11
2023-03-17T14:15:24.713Z,14.21
2023-03-17T14:17:59.275Z,14.07
2023-03-17T14:20:28.572Z,13.89
2023-03-17T14:23:01.081Z,14.01
2023-03-17T14:25:37.556Z,13.90
2023-03-17T14:28:10.694Z,13.79
2023-03-17T14:30:40.030Z,13.75
2023-03-17T14:33:21.764Z,13.72
2023-03-17T14:35:52.109Z,13.82
2023-03-17T14:38:25.028Z,13.79
2023-03-17T14:41:17.096Z,13.84
2023-03-17T14:43:45.025Z,13.99
2023-03-17T14:46:27.067Z,13.81
2023-03-17T14:48:59.772Z,13.79
2023-03-17T14:51:36.789Z,13.56
2023-03-17T14:54:13.602Z,13.48
2023-03-17T14:56:44.660Z,13.32
2023-03-17T14:59:24.728Z,13.40
2023-03-17T15:01:58.775Z,13.33
2023-03-17T15:04:28.086Z,13.47
2023-03-17T15:07:01.765Z,13.44
2023-03-17T15:09:41.676Z,13.46
2023-03-17T15:12:26.594Z,13.40
2023-03-17T15:14:56.417Z,13.37
2023-03-17T15:17:28.211Z,13.27
2023-03-17T15:20:00.413Z,13.27
2023-03-17T15:22:36.244Z,13.24
2023-03-17T15:25:17.283Z,13.31
2023-03-17T15:27:44.873Z,13.32
2023-03-17T15:30:12.795Z,13.24
2023-03-17T15:32:39.746Z,13.26
2023-03-17T15:35:08.453Z,13.19
2023-03-17T15:37:35.768Z,13.25
2023-03-17T15:40:03.443Z,13.15
2023-03-17T15:42:32.733Z,13.12
2023-03-17T15:45:01.254Z,13.10
2023-03-17T15:47:30.094Z,13.12
2023-03-17T15:50:12.214Z,13.14
2023-03-17T15:52:38.814Z,12.97
2023-03-17T15:55:18.418Z,12.96
2023-03-17T15:57:53.810Z,12.90
2023-03-17T16:00:23.694Z,12.82
2023-03-17T16:02:55.398Z,12.70
2023-03-17T16:05:24.600Z,12.59
2023-03-17T16:07:52.564Z,12.52
2023-03-17T16:10:27.842Z,12.47
2023-03-17T16:12:54.857Z,12.37
2023-03-17T16:15:27.898Z,12.30
2023-03-17T16:17:59.183Z,12.26
2023-03-17T16:20:36.647Z,12.28
2023-03-17T16:23:08.761Z,12.21
2023-03-17T16:25:36.799Z,12.15
2023-03-17T16:28:16.686Z,12.00
2023-03-17T16:30:46.241Z,11.85
2023-03-17T16:33:24.930Z,11.67
2023-03-17T16:35:53.588Z,11.43
2023-03-17T16:38:22.937Z,11.32
2023-03-17T16:40:55.755Z,11.25
2023-03-17T16:43:28.954Z,11.23
2023-03-17T16:45:58.883Z,11.18
2023-03-17T16:48:35.137Z,11.09
2023-03-17T16:51:04.619Z,10.99
2023-03-17T16:53:31.566Z,10.91
2023-03-17T16:55:58.935Z,10.82
2023-03-17T16:58:37.252Z,10.77
2023-03-17T17:01:12.240Z,10.74
2023-03-17T17:03:38.968Z,10.81
2023-03-17T17:06:07.327Z,10.81
2023-03-17T17:08:34.402Z,10.78
2023-03-17T17:11:01.585Z,10.75
2023-03-17T17:13:28.711Z,10.73
2023-03-17T17:15:57.689Z,10.72
2023-03-17T17:18:26.146Z,10.72
2023-03-17T17:20:54.313Z,10.81
2023-03-17T17:23:26.139Z,10.92
2023-03-17T17:25:54.544Z,10.92
2023-03-17T17:28:23.787Z,10.94
2023-03-17T17:30:52.393Z,10.93
2023-03-17T17:33:21.461Z,10.86
2023-03-17T17:35:49.855Z,10.81
2023-03-17T17:38:26.661Z,10.78
2023-03-17T17:40:55.760Z,10.85
2023-03-17T17:43:24.593Z,10.88
2023-03-17T17:45:52.711Z,10.90
2023-03-17T17:48:23.358Z,10.90
2023-03-17T17:50:52.198Z,10.89
2023-03-17T17:53:19.387Z,10.90
2023-03-17T17:55:48.330Z,10.86
2023-03-17T17:58:18.422Z,10.78
2023-03-17T18:00:46.004Z,10.85
2023-03-17T18:03:13.357Z,10.85
2023-03-17T18:05:40.486Z,10.84
2023-03-17T18:08:07.707Z,10.79
2023-03-17T18:10:35.088Z,10.84
2023-03-17T18:13:01.777Z,10.87
2023-03-17T18:15:29.007Z,10.91
2023-03-17T18:17:56.442Z,10.92
2023-03-17T18:20:24.451Z,10.92
2023-03-17T18:22:52.363Z,10.96
2023-03-17T18:25:20.238Z,10.91
2023-03-17T18:27:47.934Z,10.87
2023-03-17T18:30:22.592Z,10.88
2023-03-17T18:32:52.387Z,10.91
2023-03-17T18:35:22.777Z,10.88
2023-03-17T18:37:50.826Z,10.93
2023-03-17T18:40:19.183Z,10.92
2023-03-17T18:42:46.412Z,10.87
2023-03-17T18:45:13.907Z,10.82
2023-03-17T18:47:41.968Z,10.74
2023-03-17T18:50:12.022Z,10.62
2023-03-17T18:52:41.101Z,10.69
2023-03-17T18:55:10.074Z,10.68
2023-03-17T18:57:37.154Z,10.74
2023-03-17T19:00:05.902Z,10.70
2023-03-17T19:02:33.345Z,10.71
2023-03-17T19:05:01.075Z,10.70
2023-03-17T19:07:28.010Z,10.68
2023-03-17T19:09:54.781Z,10.70
2023-03-17T19:12:21.538Z,10.68
2023-03-17T19:14:48.304Z,10.60
2023-03-17T19:17:14.964Z,10.50
2023-03-17T19:19:41.863Z,10.46
2023-03-17T19:22:09.525Z,10.42
2023-03-17T19:24:37.709Z,10.50
2023-03-17T19:27:05.303Z,10.55
2023-03-17T19:29:32.787Z,10.56
2023-03-17T19:31:59.450Z,10.55
2023-03-17T19:34:27.145Z,10.53
2023-03-17T19:36:54.065Z,10.44
2023-03-17T19:39:21.625Z,10.50
2023-03-17T19:41:50.075Z,10.52
2023-03-17T19:44:16.853Z,10.55
2023-03-17T19:46:43.437Z,10.56
2023-03-17T19:49:11.738Z,10.56
2023-03-17T19:51:38.393Z,10.56
2023-03-17T19:54:05.428Z,10.56
2023-03-17T19:56:32.074Z,10.54
2023-03-17T19:58:58.675Z,10.48
2023-03-17T20:01:26.706Z,10.40
2023-03-17T20:03:53.395Z,10.28
2023-03-17T20:06:20.443Z,10.24
2023-03-17T20:08:47.062Z,10.24
2023-03-17T20:11:13.925Z,10.17
2023-03-17T20:13:41.017Z,10.08
2023-03-17T20:16:08.211Z,10.02
2023-03-17T20:18:35.120Z,9.93
2023-03-17T20:21:05.582Z,9.91
2023-03-17T20:23:33.311Z,9.97
2023-03-17T20:25:59.968Z,9.98
2023-03-17T20:28:28.271Z,10.10
2023-03-17T20:31:01.172Z,10.08
2023-03-17T20:33:27.857Z,10.04
2023-03-17T20:35:54.625Z,9.98
2023-03-17T20:38:21.362Z,9.91
2023-03-17T20:40:47.970Z,9.95
2023-03-17T20:43:14.810Z,9.95
2023-03-17T20:45:43.631Z,9.84
2023-03-17T20:48:11.585Z,9.68
2023-03-17T20:50:39.096Z,9.52
2023-03-17T20:53:05.903Z,9.49
2023-03-17T20:55:33.083Z,9.45
2023-03-17T20:57:59.943Z,9.46
2023-03-17T21:00:26.751Z,9.55
2023-03-17T21:03:09.389Z,9.59
2023-03-17T21:05:36.776Z,9.57
2023-03-17T21:08:05.509Z,9.54
2023-03-17T21:10:32.907Z,9.51
2023-03-17T21:12:59.870Z,9.50
2023-03-17T21:15:27.314Z,9.46
2023-03-17T21:17:53.902Z,9.45
2023-03-17T21:20:21.669Z,9.36
2023-03-17T21:22:48.368Z,9.32
2023-03-17T21:25:15.112Z,9.21
2023-03-17T21:27:42.911Z,9.18
2023-03-17T21:30:12.724Z,9.23
2023-03-17T21:32:40.698Z,9.26
2023-03-17T21:35:08.529Z,9.34
2023-03-17T21:37:35.544Z,9.41
2023-03-17T21:40:02.493Z,9.41
2023-03-17T21:42:29.416Z,9.38
2023-03-17T21:44:56.021Z,9.35
2023-03-17T21:47:23.019Z,9.33
2023-03-17T21:49:49.773Z,9.30
2023-03-17T21:52:16.832Z,9.30
2023-03-17T21:54:43.667Z,9.25
2023-03-17T21:57:12.234Z,9.21
2023-03-17T21:59:40.268Z,9.18
2023-03-17T22:02:12.871Z,9.14
2023-03-17T22:04:41.754Z,9.15
2023-03-17T22:07:08.424Z,9.12
2023-03-17T22:09:36.238Z,9.13
2023-03-17T22:12:04.469Z,9.18
2023-03-17T22:14:31.391Z,9.21
2023-03-17T22:16:58.632Z,9.23
2023-03-17T22:19:25.970Z,9.25
2023-03-17T22:21:53.083Z,9.25
2023-03-17T22:24:19.762Z,9.24
2023-03-17T22:26:46.622Z,9.22
2023-03-17T22:29:13.804Z,9.20
2023-03-17T22:31:42.687Z,9.21
2023-03-17T22:34:10.075Z,9.17
2023-03-17T22:36:37.651Z,9.13
2023-03-17T22:39:06.968Z,9.09
2023-03-17T22:41:34.094Z,9.01
2023-03-17T22:44:01.173Z,9.01
2023-03-17T22:46:28.044Z,9.04
2023-03-17T22:48:55.144Z,9.02
2023-03-17T22:51:24.615Z,9.03
2023-03-17T22:53:52.554Z,9.01
2023-03-17T22:56:19.981Z,9.00
2023-03-17T22:58:47.179Z,8.98
2023-03-17T23:01:17.024Z,8.97
2023-03-17T23:03:44.255Z,8.94
2023-03-17T23:06:13.112Z,8.88
2023-03-17T23:08:42.912Z,8.85
2023-03-17T23:11:23.423Z,8.85
2023-03-17T23:13:52.621Z,8.82
2023-03-17T23:16:20.377Z,8.85
2023-03-17T23:18:47.241Z,8.84
2023-03-17T23:21:30.227Z,8.84
2023-03-17T23:23:57.257Z,8.74
2023-03-17T23:26:24.019Z,8.75
2023-03-17T23:28:51.286Z,8.67
2023-03-17T23:31:19.402Z,8.63
2023-03-17T23:33:47.855Z,8.59
2023-03-17T23:36:16.255Z,8.55
2023-03-17T23:38:44.350Z,8.53
2023-03-17T23:41:13.506Z,8.50
2023-03-17T23:43:40.755Z,8.53
2023-03-17T23:46:07.402Z,8.53
2023-03-17T23:48:34.131Z,8.54
2023-03-17T23:51:01.160Z,8.58
2023-03-17T23:53:28.396Z,8.63
2023-03-17T23:55:55.144Z,8.64
2023-03-17T23:58:22.815Z,8.64
